createdAt,value
2023-04-19T00:04:09.842Z,86.21
2023-04-19T00:09:16.363Z,86.16
2023-04-19T00:14:22.723Z,85.75
2023-04-19T00:19:30.396Z,85.64
2023-04-19T00:24:36.582Z,85.81
2023-04-19T00:29:44.776Z,85.72
2023-04-19T00:34:52.571Z,85.55
2023-04-19T00:39:58.757Z,86.67
2023-04-19T00:45:06.566Z,87.04
2023-04-19T00:50:15.275Z,87.38
2023-04-19T00:55:21.851Z,87.73
2023-04-19T01:00:29.954Z,87.89
2023-04-19T01:05:38.291Z,88.17
2023-04-19T01:10:44.709Z,87.90
2023-04-19T01:15:51.944Z,87.49
2023-04-19T01:21:01.427Z,87.50
2023-04-19T01:26:09.197Z,87.46
2023-04-19T01:31:15.726Z,86.51
2023-04-19T01:36:22.170Z,86.87
2023-04-19T01:41:32.252Z,86.51
2023-04-19T01:46:39.274Z,86.35
2023-04-19T01:51:45.951Z,86.46
2023-04-19T01:56:53.915Z,86.25
2023-04-19T02:02:00.399Z,86.35
2023-04-19T02:07:06.900Z,85.58
2023-04-19T02:12:14.768Z,85.68
2023-04-19T02:17:23.676Z,85.44
2023-04-19T02:22:31.202Z,85.30
2023-04-19T02:27:39.142Z,85.41
2023-04-19T02:32:45.390Z,85.63
2023-04-19T02:37:51.639Z,85.79
2023-04-19T02:42:59.853Z,85.34
2023-04-19T02:48:06.966Z,85.91
2023-04-19T02:53:13.301Z,86.17
2023-04-19T02:58:22.311Z,86.42
2023-04-19T03:03:43.110Z,86.49
2023-04-19T03:08:50.006Z,87.03
2023-04-19T03:13:59.435Z,86.99
2023-04-19T03:19:06.236Z,86.73
2023-04-19T03:24:20.838Z,87.73
2023-04-19T03:29:32.552Z,87.94
2023-04-19T03:34:48.678Z,87.46
2023-04-19T03:39:56.242Z,87.81
2023-04-19T03:45:12.494Z,87.50
2023-04-19T03:50:24.227Z,87.92
2023-04-19T03:55:33.674Z,88.05
2023-04-19T04:00:42.575Z,87.97
2023-04-19T04:05:49.052Z,88.72
2023-04-19T04:10:56.926Z,88.74
2023-04-19T04:16:05.362Z,88.70
2023-04-19T04:21:13.713Z,88.99
2023-04-19T04:26:22.306Z,89.33
2023-04-19T04:31:38.644Z,89.79
2023-04-19T04:36:45.021Z,90.01
2023-04-19T04:41:52.286Z,91.01
2023-04-19T04:47:01.184Z,91.41
2023-04-19T04:52:13.847Z,91.71
2023-04-19T04:57:33.252Z,92.01
2023-04-19T05:02:42.976Z,93.04
2023-04-19T05:07:51.227Z,93.44
2023-04-19T05:12:57.914Z,93.97
2023-04-19T05:18:07.680Z,94.72
2023-04-19T05:23:16.168Z,94.97
2023-04-19T05:28:23.516Z,94.95
2023-04-19T05:33:41.947Z,95.22
2023-04-19T05:38:49.705Z,95.26
2023-04-19T05:43:56.661Z,95.94
2023-04-19T05:49:07.009Z,95.90
2023-04-19T05:54:36.472Z,96.32
2023-04-19T05:59:44.804Z,96.55
2023-04-19T06:04:55.261Z,96.19
2023-04-19T06:10:03.450Z,96.48
2023-04-19T06:15:12.143Z,97.15
2023-04-19T06:20:20.251Z,97.52
2023-04-19T06:25:27.047Z,97.00
2023-04-19T06:30:33.400Z,97.13
2023-04-19T06:35:41.312Z,97.34
2023-04-19T06:40:47.549Z,97.19
2023-04-19T06:46:00.820Z,97.47
2023-04-19T06:51:08.738Z,97.81
2023-04-19T06:56:15.340Z,97.62
2023-04-19T07:01:21.651Z,98.16
2023-04-19T07:06:30.017Z,98.16
2023-04-19T07:11:36.914Z,98.24
2023-04-19T07:16:44.465Z,97.65
2023-04-19T07:21:53.047Z,97.96
2023-04-19T07:26:59.542Z,97.87
2023-04-19T07:32:06.739Z,97.70
2023-04-19T07:37:14.769Z,97.79
2023-04-19T07:42:24.249Z,97.72
2023-04-19T07:47:31.663Z,98.14
2023-04-19T07:52:39.323Z,98.57
2023-04-19T07:57:48.628Z,98.48
2023-04-19T08:02:55.195Z,98.56
2023-04-19T08:08:03.244Z,98.98
2023-04-19T08:13:09.629Z,98.77
2023-04-19T08:18:16.243Z,97.63
2023-04-19T08:23:29.755Z,97.46
2023-04-19T08:28:44.267Z,97.20
2023-04-19T08:33:50.693Z,97.54
2023-04-19T08:39:06.630Z,97.34
2023-04-19T08:44:36.081Z,97.31
2023-04-19T08:49:43.937Z,96.57
2023-04-19T08:54:52.810Z,96.70
2023-04-19T08:59:59.420Z,96.92
2023-04-19T09:05:08.006Z,97.44
2023-04-19T09:10:18.127Z,94.61
2023-04-19T09:15:40.083Z,91.95
2023-04-19T09:20:48.167Z,92.06
2023-04-19T09:26:22.181Z,90.27
2023-04-19T09:31:43.276Z,89.92
2023-04-19T09:37:04.364Z,88.34
2023-04-19T09:42:36.025Z,86.62
2023-04-19T09:47:46.978Z,87.93
2023-04-19T09:52:54.465Z,87.68
2023-04-19T09:58:02.138Z,87.25
2023-04-19T10:03:11.116Z,87.19
2023-04-19T10:08:19.038Z,85.89
2023-04-19T10:13:27.781Z,85.50
2023-04-19T10:18:35.730Z,85.79
2023-04-19T10:23:42.388Z,85.11
2023-04-19T10:28:50.870Z,85.70
2023-04-19T10:33:58.010Z,85.82
2023-04-19T10:39:05.325Z,85.66
2023-04-19T10:44:14.175Z,84.90
2023-04-19T10:49:25.014Z,84.71
2023-04-19T10:54:33.662Z,84.63
2023-04-19T10:59:44.671Z,83.64
2023-04-19T11:05:14.289Z,84.29
2023-04-19T11:10:32.081Z,84.06
2023-04-19T11:15:45.704Z,84.43
2023-04-19T11:20:56.127Z,84.59
2023-04-19T11:26:02.559Z,84.25
2023-04-19T11:31:10.437Z,85.50
2023-04-19T11:36:17.016Z,85.21
2023-04-19T11:41:23.560Z,85.64
2023-04-19T11:46:31.385Z,85.64
2023-04-19T11:51:37.822Z,85.50
2023-04-19T11:57:04.075Z,84.38
2023-04-19T12:02:14.356Z,84.53
2023-04-19T12:07:20.847Z,84.27
2023-04-19T12:12:44.603Z,83.63
2023-04-19T12:18:03.998Z,82.92
2023-04-19T12:23:11.553Z,81.63
2023-04-19T12:28:18.597Z,81.95
2023-04-19T12:33:26.819Z,80.57
2023-04-19T12:38:33.447Z,80.36
2023-04-19T12:43:39.923Z,80.42
2023-04-19T12:48:47.847Z,80.57
2023-04-19T12:53:55.966Z,80.40
2023-04-19T12:59:02.373Z,79.22
2023-04-19T13:04:12.212Z,78.08
2023-04-19T13:09:18.790Z,77.20
2023-04-19T13:14:25.324Z,78.72
2023-04-19T13:19:33.394Z,78.25
2023-04-19T13:24:40.239Z,78.37
2023-04-19T13:29:47.281Z,78.16
2023-04-19T13:34:55.206Z,76.77
2023-04-19T13:40:14.868Z,77.53
2023-04-19T13:45:26.125Z,76.97
2023-04-19T13:50:33.842Z,76.53
2023-04-19T13:55:40.274Z,76.62
2023-04-19T14:00:48.581Z,76.95
2023-04-19T14:05:57.045Z,77.87
2023-04-19T14:11:03.449Z,76.97
2023-04-19T14:16:11.494Z,77.20
2023-04-19T14:21:19.653Z,76.51
2023-04-19T14:26:27.509Z,75.73
2023-04-19T14:31:34.747Z,75.02
2023-04-19T14:36:43.159Z,74.60
2023-04-19T14:41:49.660Z,74.72
2023-04-19T14:46:56.311Z,74.44
2023-04-19T14:52:05.343Z,74.76
2023-04-19T14:57:12.380Z,74.27
2023-04-19T15:02:18.952Z,74.90
2023-04-19T15:07:27.060Z,74.86
2023-04-19T15:12:33.498Z,75.30
2023-04-19T15:17:40.273Z,75.04
2023-04-19T15:22:48.433Z,75.90
2023-04-19T15:27:54.778Z,74.90
2023-04-19T15:33:01.758Z,75.63
2023-04-19T15:38:09.560Z,73.26
2023-04-19T15:43:15.708Z,73.64
2023-04-19T15:48:22.550Z,72.94
2023-04-19T15:53:30.723Z,72.45
2023-04-19T15:58:37.168Z,73.29
2023-04-19T16:03:44.126Z,73.02
2023-04-19T16:08:52.494Z,74.84
2023-04-19T16:13:58.913Z,71.63
2023-04-19T16:19:06.723Z,73.18
2023-04-19T16:24:22.044Z,75.29
2023-04-19T16:29:34.675Z,78.20
2023-04-19T16:34:46.155Z,82.26
2023-04-19T16:39:54.403Z,84.63
2023-04-19T16:45:01.569Z,87.13
2023-04-19T16:50:10.691Z,87.51
2023-04-19T16:55:19.133Z,88.80
2023-04-19T17:00:26.614Z,90.07
2023-04-19T17:05:33.679Z,89.98
2023-04-19T17:10:41.767Z,89.65
2023-04-19T17:15:48.743Z,89.90
2023-04-19T17:20:56.612Z,91.08
2023-04-19T17:26:05.950Z,91.64
2023-04-19T17:31:14.288Z,92.30
2023-04-19T17:36:21.328Z,91.67
2023-04-19T17:41:29.947Z,91.36
2023-04-19T17:46:38.027Z,91.49
2023-04-19T17:51:46.810Z,92.34
2023-04-19T17:57:00.191Z,92.01
2023-04-19T18:02:10.235Z,92.29
2023-04-19T18:07:19.060Z,92.06
2023-04-19T18:12:31.327Z,91.95
2023-04-19T18:17:41.988Z,91.73
2023-04-19T18:22:54.976Z,91.84
2023-04-19T18:28:06.267Z,91.99
2023-04-19T18:33:14.465Z,91.69
2023-04-19T18:38:24.112Z,90.60
2023-04-19T18:43:36.141Z,91.18
2023-04-19T18:48:48.348Z,92.12
2023-04-19T18:53:57.708Z,92.15
2023-04-19T18:59:09.728Z,91.75
2023-04-19T19:04:46.776Z,91.94
2023-04-19T19:09:57.821Z,91.85
2023-04-19T19:15:16.486Z,91.53
2023-04-19T19:20:25.595Z,91.76
2023-04-19T19:25:35.180Z,91.85
2023-04-19T19:30:46.119Z,92.40
2023-04-19T19:35:55.306Z,91.97
2023-04-19T19:46:17.681Z,91.55
2023-04-19T19:51:44.119Z,92.22
2023-04-19T20:02:08.562Z,93.00
2023-04-19T20:12:28.125Z,93.13
2023-04-19T20:17:37.985Z,93.33
2023-04-19T20:22:53.080Z,93.32
2023-04-19T20:28:02.499Z,93.32
2023-04-19T20:33:12.823Z,93.56
2023-04-19T20:38:24.441Z,93.39
2023-04-19T20:43:35.555Z,94.04
2023-04-19T20:48:46.010Z,94.58
2023-04-19T20:53:54.744Z,94.28
2023-04-19T20:59:02.365Z,94.32
2023-04-19T21:04:10.471Z,94.47
2023-04-19T21:09:17.397Z,94.35
2023-04-19T21:14:24.285Z,94.09
2023-04-19T21:19:32.709Z,93.86
2023-04-19T21:24:39.447Z,94.50
2023-04-19T21:29:45.986Z,96.04
2023-04-19T21:34:54.198Z,95.35
2023-04-19T21:40:00.730Z,96.45
2023-04-19T21:45:08.687Z,96.71
2023-04-19T21:50:16.714Z,95.86
2023-04-19T21:55:23.698Z,96.62
2023-04-19T22:00:30.691Z,97.05
2023-04-19T22:05:41.410Z,96.45
2023-04-19T22:10:47.621Z,96.14
2023-04-19T22:15:55.491Z,96.15
2023-04-19T22:21:03.740Z,96.06
2023-04-19T22:26:10.100Z,96.14
2023-04-19T22:31:16.552Z,96.22
2023-04-19T22:36:24.185Z,95.99
2023-04-19T22:41:30.460Z,96.13
2023-04-19T22:46:37.787Z,95.84
2023-04-19T22:51:46.257Z,95.91
2023-04-19T22:56:52.696Z,95.49
2023-04-19T23:01:59.146Z,95.05
2023-04-19T23:07:07.385Z,95.26
2023-04-19T23:12:16.118Z,94.58
2023-04-19T23:17:22.530Z,94.68
2023-04-19T23:22:30.382Z,94.62
2023-04-19T23:27:37.541Z,94.46
2023-04-19T23:32:44.036Z,94.31
2023-04-19T23:37:51.797Z,94.18
2023-04-19T23:42:58.341Z,94.02
2023-04-19T23:48:04.780Z,93.88
2023-04-19T23:53:12.564Z,94.04
2023-04-19T23:58:19.336Z,94.21
